Time;durP1;ratioP1;P1;durP2;ratioP2;P2;SDS_P1;SDS_P2;PMS_P1;PMS_P2;Temp;Humidity;BMP_temperature;BMP_pressure;BME280_temperature;BME280_humidity;BME280_pressure;Samples;Min_cycle;Max_cycle;Signal;HPM_P1;HPM_P2
2022/11/09 00:02:08;;;;;;;25.08;3.58;;;;;;;-144.40;100.00;60209.53;4858211;29;20030;-90
2022/11/09 00:04:33;;;;;;;23.55;4.63;;;;;;;-144.40;100.00;60209.53;4848602;29;20035;-89
2022/11/09 00:07:01;;;;;;;28.98;4.13;;;;;;;-144.40;100.00;60209.53;4859504;29;20034;-92
2022/11/09 00:09:26;;;;;;;16.15;3.00;;;;;;;-144.40;100.00;60209.53;4859809;29;20040;-91
2022/11/09 00:11:53;;;;;;;15.68;2.60;;;;;;;-144.40;100.00;60209.53;4860472;29;20030;-92
2022/11/09 00:14:19;;;;;;;23.77;3.97;;;;;;;-144.40;100.00;60209.53;4859831;29;20484;-92
2022/11/09 00:16:44;;;;;;;28.60;3.25;;;;;;;-144.40;100.00;60209.53;4859298;29;20060;-92
2022/11/09 00:19:12;;;;;;;29.17;3.08;;;;;;;-144.40;100.00;60209.53;4857291;29;20499;-92
2022/11/09 00:21:37;;;;;;;24.70;2.72;;;;;;;-144.40;100.00;60209.53;4874526;29;20117;-91
2022/11/09 00:24:03;;;;;;;18.77;3.65;;;;;;;-144.40;100.00;60209.53;4859900;29;20038;-91
2022/11/09 00:26:29;;;;;;;20.38;2.83;;;;;;;-144.40;100.00;60209.53;4860265;29;20077;-91
2022/11/09 00:28:54;;;;;;;22.00;3.17;;;;;;;-144.40;100.00;60209.53;4859051;29;20030;-92
2022/11/09 00:31:22;;;;;;;9.98;2.00;;;;;;;-144.40;100.00;60209.53;4857942;29;20041;-92
2022/11/09 00:33:52;;;;;;;29.02;3.65;;;;;;;-144.40;100.00;60209.53;4858856;29;20079;-92
2022/11/09 00:36:19;;;;;;;20.23;3.38;;;;;;;-144.40;100.00;60209.53;4858357;29;20033;-92
2022/11/09 00:38:53;;;;;;;21.50;3.08;;;;;;;-144.40;100.00;60209.53;4858784;29;20026;-92
2022/11/09 00:41:20;;;;;;;19.30;2.47;;;;;;;-144.40;100.00;60209.53;4858532;29;20033;-91
2022/11/09 00:43:46;;;;;;;30.83;4.25;;;;;;;-144.40;100.00;60209.53;4858971;29;20032;-92
2022/11/09 00:46:12;;;;;;;25.65;3.28;;;;;;;-144.40;100.00;60209.53;4858632;29;20402;-91
2022/11/09 00:48:37;;;;;;;27.70;2.95;;;;;;;-144.40;100.00;60209.53;4858418;29;20052;-91
2022/11/09 00:51:03;;;;;;;19.02;3.10;;;;;;;-144.40;100.00;60209.53;4858255;29;20045;-91
2022/11/09 00:53:30;;;;;;;17.17;2.60;;;;;;;-144.40;100.00;60209.53;4874476;29;20492;-92
2022/11/09 00:55:57;;;;;;;18.90;2.42;;;;;;;-144.40;100.00;60209.53;4873949;29;20033;-91
2022/11/09 00:58:25;;;;;;;19.92;2.42;;;;;;;-144.40;100.00;60209.53;4860072;29;20109;-91
2022/11/09 01:00:51;;;;;;;26.42;2.55;;;;;;;-144.40;100.00;60209.53;4857335;29;20061;-92
2022/11/09 01:03:16;;;;;;;23.88;2.65;;;;;;;-144.40;100.00;60209.53;4858742;29;20028;-91
2022/11/09 01:05:42;;;;;;;24.17;2.83;;;;;;;-144.40;100.00;60209.53;4859247;29;20040;-91
2022/11/09 01:08:08;;;;;;;29.77;4.13;;;;;;;-144.40;100.00;60209.53;4858410;29;20511;-91
2022/11/09 01:10:33;;;;;;;26.00;2.83;;;;;;;-144.40;100.00;60209.53;4858050;29;20480;-91
2022/11/09 01:12:59;;;;;;;27.25;4.28;;;;;;;-144.40;100.00;60209.53;4860088;29;20382;-91
2022/11/09 01:15:25;;;;;;;19.27;2.55;;;;;;;-144.40;100.00;60209.53;4872977;29;20032;-91
2022/11/09 01:17:51;;;;;;;18.45;2.67;;;;;;;-144.40;100.00;60209.53;4859349;29;20172;-90
2022/11/09 01:20:16;;;;;;;24.38;2.72;;;;;;;-144.40;100.00;60209.53;4858946;29;20025;-90
2022/11/09 01:22:42;;;;;;;19.85;2.33;;;;;;;-144.40;100.00;60209.53;4858380;29;20037;-90
2022/11/09 01:25:08;;;;;;;17.20;2.42;;;;;;;-144.40;100.00;60209.53;4859288;29;20033;-90
2022/11/09 01:27:34;;;;;;;30.20;2.60;;;;;;;-144.40;100.00;60209.53;4873486;29;20488;-89
2022/11/09 01:30:00;;;;;;;13.65;2.15;;;;;;;-144.40;100.00;60209.53;4857564;29;20044;-92
2022/11/09 01:32:25;;;;;;;20.25;2.78;;;;;;;-144.40;100.00;60209.53;4858607;29;20057;-91
2022/11/09 01:34:51;;;;;;;22.80;3.17;;;;;;;-144.40;100.00;60209.53;4858972;29;20044;-91
2022/11/09 01:37:17;;;;;;;13.13;2.10;;;;;;;-144.40;100.00;60209.53;4858244;29;20037;-92
2022/11/09 01:39:42;;;;;;;26.25;3.08;;;;;;;-144.40;100.00;60209.53;4857626;29;20029;-92
2022/11/09 01:42:08;;;;;;;16.77;1.83;;;;;;;-144.40;100.00;60209.53;4859681;29;20025;-92
2022/11/09 01:44:36;;;;;;;20.75;3.28;;;;;;;-144.40;100.00;60209.53;4872618;29;20125;-90
2022/11/09 01:47:31;;;;;;;12.68;1.58;;;;;;;-144.40;100.00;60209.53;4857812;29;20069;-91
2022/11/09 01:49:59;;;;;;;14.80;2.45;;;;;;;-144.40;100.00;60209.53;4854289;29;20050;-90
2022/11/09 01:52:36;;;;;;;20.27;2.28;;;;;;;-144.40;100.00;60209.53;4858415;29;20029;-91
2022/11/09 01:55:06;;;;;;;25.00;3.30;;;;;;;-144.40;100.00;60209.53;4859181;29;20025;-90
2022/11/09 01:57:36;;;;;;;15.63;2.10;;;;;;;-144.40;100.00;60209.53;4858346;29;20374;-92
2022/11/09 02:00:08;;;;;;;18.67;2.35;;;;;;;-144.40;100.00;60209.53;4856531;29;20391;-90
2022/11/09 02:02:35;;;;;;;21.42;3.85;;;;;;;-144.40;100.00;60209.53;4859242;29;20097;-92
2022/11/09 02:05:06;;;;;;;17.80;3.13;;;;;;;-144.40;100.00;60209.53;4857836;29;20025;-91
2022/11/09 02:07:33;;;;;;;18.30;3.30;;;;;;;-144.40;100.00;60209.53;4858239;29;20034;-91
2022/11/09 02:10:13;;;;;;;21.23;2.63;;;;;;;-144.40;100.00;60209.53;4858879;29;20030;-91
2022/11/09 02:12:40;;;;;;;19.50;2.60;;;;;;;-144.40;100.00;60209.53;4859699;29;20037;-91
2022/11/09 02:15:08;;;;;;;19.65;2.10;;;;;;;-144.40;100.00;60209.53;4863564;29;20129;-91
2022/11/09 02:17:33;;;;;;;13.48;1.98;;;;;;;-144.40;100.00;60209.53;4854921;29;20128;-91
2022/11/09 02:20:00;;;;;;;19.88;2.78;;;;;;;-144.40;100.00;60209.53;4860229;29;20579;-91
2022/11/09 02:22:25;;;;;;;16.65;2.40;;;;;;;-144.40;100.00;60209.53;4876347;29;20281;-92
2022/11/09 02:24:51;;;;;;;19.55;1.88;;;;;;;-144.40;100.00;60209.53;4860921;29;20393;-91
2022/11/09 02:27:18;;;;;;;11.82;2.15;;;;;;;-144.40;100.00;60209.53;4862027;29;20076;-91
2022/11/09 02:29:45;;;;;;;15.32;2.15;;;;;;;-144.40;100.00;60209.53;4875774;29;20520;-91
2022/11/09 02:32:21;;;;;;;18.52;2.25;;;;;;;-144.40;100.00;60209.53;4860822;29;20110;-91
2022/11/09 02:34:46;;;;;;;12.40;1.67;;;;;;;-144.40;100.00;60209.53;4861353;29;20148;-92
2022/11/09 02:37:12;;;;;;;13.32;1.73;;;;;;;-144.40;100.00;60209.53;4876157;29;20528;-92
2022/11/09 02:39:37;;;;;;;5.97;1.77;;;;;;;-144.40;100.00;60209.53;4860908;29;20029;-92
2022/11/09 02:42:10;;;;;;;8.77;1.13;;;;;;;-144.40;100.00;60209.53;4860772;29;20645;-92
2022/11/09 02:44:43;;;;;;;10.77;1.55;;;;;;;-144.40;100.00;60209.53;4860728;29;20041;-91
2022/11/09 02:47:09;;;;;;;9.45;1.10;;;;;;;-144.40;100.00;60209.53;4861222;29;20048;-92
2022/11/09 02:49:34;;;;;;;18.58;1.63;;;;;;;-144.40;100.00;60209.53;4861713;29;20489;-91
2022/11/09 02:52:00;;;;;;;8.55;1.17;;;;;;;-144.40;100.00;60209.53;4875614;29;20531;-92
2022/11/09 02:54:25;;;;;;;9.20;1.50;;;;;;;-144.40;100.00;60209.53;4860592;29;20026;-91
2022/11/09 02:56:51;;;;;;;9.68;0.98;;;;;;;-144.40;100.00;60209.53;4860455;29;20033;-91
2022/11/09 02:59:16;;;;;;;3.97;0.60;;;;;;;-144.40;100.00;60209.53;4860105;29;20033;-93
2022/11/09 03:01:42;;;;;;;12.95;1.20;;;;;;;-144.40;100.00;60209.53;4861809;29;20022;-90
2022/11/09 03:04:08;;;;;;;7.68;1.08;;;;;;;-144.40;100.00;60209.53;4861514;29;20040;-90
2022/11/09 03:06:33;;;;;;;6.15;1.42;;;;;;;-144.40;100.00;60209.53;4861477;29;20029;-92
2022/11/09 03:09:05;;;;;;;8.40;1.05;;;;;;;-144.40;100.00;60209.53;4860264;29;20068;-91
2022/11/09 03:11:30;;;;;;;11.27;1.08;;;;;;;-144.40;100.00;60209.53;4876106;29;20057;-91
2022/11/09 03:13:56;;;;;;;15.02;1.52;;;;;;;-144.40;100.00;60209.53;4874230;29;20501;-92
2022/11/09 03:16:22;;;;;;;9.20;1.25;;;;;;;-144.40;100.00;60209.53;4860240;29;20026;-91
2022/11/09 03:18:47;;;;;;;8.27;1.02;;;;;;;-144.40;100.00;60209.53;4859924;29;20064;-91
2022/11/09 03:21:13;;;;;;;8.05;1.13;;;;;;;-144.40;100.00;60209.53;4875846;29;20049;-91
2022/11/09 03:23:39;;;;;;;6.55;1.30;;;;;;;-144.40;100.00;60209.53;4875005;29;20477;-92
2022/11/09 03:26:04;;;;;;;3.55;1.08;;;;;;;-144.40;100.00;60209.53;4860236;29;20094;-91
2022/11/09 03:28:30;;;;;;;10.38;1.10;;;;;;;-144.40;100.00;60209.53;4858099;29;20046;-91
2022/11/09 03:30:55;;;;;;;7.60;1.23;;;;;;;-144.40;100.00;60209.53;4858697;29;20059;-91
2022/11/09 03:33:21;;;;;;;6.30;0.65;;;;;;;-144.40;100.00;60209.53;4861134;29;20113;-91
2022/11/09 03:35:46;;;;;;;10.23;1.90;;;;;;;-144.40;100.00;60209.53;4860709;29;20040;-90
2022/11/09 03:38:12;;;;;;;6.50;1.00;;;;;;;-144.40;100.00;60209.53;4860750;29;20038;-91
2022/11/09 03:40:38;;;;;;;4.70;0.93;;;;;;;-144.40;100.00;60209.53;4875473;29;20409;-92
2022/11/09 03:43:03;;;;;;;10.40;1.50;;;;;;;-144.40;100.00;60209.53;4859490;29;20037;-91
2022/11/09 03:45:29;;;;;;;11.63;1.20;;;;;;;-144.40;100.00;60209.53;4859780;29;20026;-91
2022/11/09 03:47:59;;;;;;;9.98;1.23;;;;;;;-144.40;100.00;60209.53;4859454;29;20036;-91
2022/11/09 03:50:29;;;;;;;4.28;1.02;;;;;;;-144.40;100.00;60209.53;4859474;29;20480;-90
2022/11/09 03:52:56;;;;;;;7.88;1.13;;;;;;;-144.40;100.00;60209.53;4861032;29;20036;-91
2022/11/09 03:55:22;;;;;;;10.57;1.30;;;;;;;-144.40;100.00;60209.53;4859010;29;20029;-90
2022/11/09 03:57:48;;;;;;;13.43;0.88;;;;;;;-144.40;100.00;60209.53;4875087;29;20077;-91
2022/11/09 04:00:16;;;;;;;6.28;0.90;;;;;;;-144.40;100.00;60209.53;4860249;29;20101;-91
2022/11/09 04:02:42;;;;;;;9.05;1.05;;;;;;;-144.40;100.00;60209.53;4858419;29;20389;-91
2022/11/09 04:05:08;;;;;;;5.13;0.90;;;;;;;-144.40;100.00;60209.53;4858360;29;20048;-91
2022/11/09 04:07:33;;;;;;;6.20;0.70;;;;;;;-144.40;100.00;60209.53;4875004;29;20026;-91
2022/11/09 04:09:58;;;;;;;9.20;1.52;;;;;;;-144.40;100.00;60209.53;4874402;29;20533;-91
2022/11/09 04:12:24;;;;;;;8.63;0.98;;;;;;;-144.40;100.00;60209.53;4859260;29;20040;-91
2022/11/09 04:14:50;;;;;;;5.72;0.90;;;;;;;-144.40;100.00;60209.53;4859002;29;20492;-91
2022/11/09 04:17:15;;;;;;;6.25;0.90;;;;;;;-144.40;100.00;60209.53;4874682;29;20400;-92
2022/11/09 04:19:41;;;;;;;9.15;1.05;;;;;;;-144.40;100.00;60209.53;4859263;29;20024;-90
2022/11/09 04:22:06;;;;;;;4.32;0.88;;;;;;;-144.40;100.00;60209.53;4859371;29;20388;-92
2022/11/09 04:24:32;;;;;;;8.82;1.00;;;;;;;-144.40;100.00;60209.53;4874077;29;20026;-92
2022/11/09 04:26:57;;;;;;;6.97;1.15;;;;;;;-144.40;100.00;60209.53;4859330;29;20061;-91
2022/11/09 04:29:23;;;;;;;6.35;0.85;;;;;;;-144.40;100.00;60209.53;4859095;29;20052;-91
2022/11/09 04:31:48;;;;;;;6.10;0.88;;;;;;;-144.40;100.00;60209.53;4859122;29;20093;-92
2022/11/09 04:34:16;;;;;;;7.80;0.63;;;;;;;-144.40;100.00;60209.53;4856419;29;20030;-92
2022/11/09 04:36:41;;;;;;;5.90;0.60;;;;;;;-144.40;100.00;60209.53;4859687;29;20329;-92
2022/11/09 04:39:07;;;;;;;2.35;0.38;;;;;;;-144.40;100.00;60209.53;4858624;29;20576;-91
2022/11/09 04:41:32;;;;;;;8.73;0.85;;;;;;;-144.40;100.00;60209.53;4859059;29;20397;-91
2022/11/09 04:43:58;;;;;;;3.63;0.90;;;;;;;-144.40;100.00;60209.53;4873942;29;20392;-91
2022/11/09 04:46:24;;;;;;;5.57;1.98;;;;;;;-144.40;100.00;60209.53;4858902;29;20031;-91
2022/11/09 04:48:49;;;;;;;2.65;0.57;;;;;;;-144.40;100.00;60209.53;4858747;29;20488;-91
2022/11/09 04:51:15;;;;;;;3.38;0.38;;;;;;;-144.40;100.00;60209.53;4844687;29;20349;-90
2022/11/09 04:53:40;;;;;;;2.75;0.43;;;;;;;-144.40;100.00;60209.53;4840462;29;20030;-91
2022/11/09 04:56:07;;;;;;;7.22;0.30;;;;;;;-144.40;100.00;60209.53;4858967;29;20041;-91
2022/11/09 04:58:33;;;;;;;3.00;0.40;;;;;;;-144.40;100.00;60209.53;4859982;29;20038;-91
2022/11/09 05:01:07;;;;;;;11.55;1.00;;;;;;;-144.40;100.00;60209.53;4859858;29;20033;-90
2022/11/09 05:03:33;;;;;;;1.27;0.30;;;;;;;-144.40;100.00;60209.53;4873289;29;20036;-91
2022/11/09 05:05:59;;;;;;;6.85;0.50;;;;;;;-144.40;100.00;60209.53;4857706;29;20029;-91
2022/11/09 05:08:25;;;;;;;5.60;1.00;;;;;;;-144.40;100.00;60209.53;4859908;29;20037;-91
2022/11/09 05:10:50;;;;;;;4.15;0.52;;;;;;;-144.40;100.00;60209.53;4858269;29;20033;-92
2022/11/09 05:13:16;;;;;;;6.70;1.10;;;;;;;-144.40;100.00;60209.53;4873142;29;20029;-91
2022/11/09 05:15:42;;;;;;;5.05;0.90;;;;;;;-144.40;100.00;60209.53;4857269;29;20477;-92
2022/11/09 05:18:08;;;;;;;4.15;0.80;;;;;;;-144.40;100.00;60209.53;4858025;29;20045;-92
2022/11/09 05:20:35;;;;;;;6.38;0.85;;;;;;;-144.40;100.00;60209.53;4859474;29;20481;-91
2022/11/09 05:25:45;;;;;;;11.07;0.75;;;;;;;-144.40;100.00;60209.53;4859250;29;20515;-92
2022/11/09 05:28:11;;;;;;;6.07;1.58;;;;;;;-144.40;100.00;60209.53;4860413;29;20083;-91
2022/11/09 05:30:37;;;;;;;6.90;0.70;;;;;;;-144.40;100.00;60209.53;4859333;29;20085;-91
2022/11/09 05:33:03;;;;;;;4.35;0.55;;;;;;;-144.40;100.00;60209.53;4873767;29;20397;-92
2022/11/09 05:35:28;;;;;;;8.05;0.57;;;;;;;-144.40;100.00;60209.53;4873472;29;20044;-91
2022/11/09 05:37:54;;;;;;;12.73;1.17;;;;;;;-144.40;100.00;60209.53;4856696;29;20040;-92
2022/11/09 05:40:20;;;;;;;4.57;0.55;;;;;;;-144.40;100.00;60209.53;4858953;29;20041;-92
2022/11/09 05:42:46;;;;;;;5.03;0.47;;;;;;;-144.40;100.00;60209.53;4858316;29;20503;-91
2022/11/09 05:45:17;;;;;;;7.95;0.68;;;;;;;-144.40;100.00;60209.53;4857636;29;20129;-91
2022/11/09 05:47:43;;;;;;;4.43;0.70;;;;;;;-144.40;100.00;60209.53;4860278;29;20459;-91
2022/11/09 05:50:13;;;;;;;5.07;0.40;;;;;;;-144.40;100.00;60209.53;4862470;29;20629;-92
2022/11/09 05:52:39;;;;;;;6.55;0.70;;;;;;;-144.40;100.00;60209.53;4862590;29;20109;-91
2022/11/09 05:55:05;;;;;;;3.85;0.68;;;;;;;-144.40;100.00;60209.53;4861143;29;20025;-92
2022/11/09 05:57:30;;;;;;;2.92;0.45;;;;;;;-144.40;100.00;60209.53;4877219;29;20482;-91
2022/11/09 05:59:56;;;;;;;2.85;0.80;;;;;;;-144.40;100.00;60209.53;4861446;29;20048;-92
2022/11/09 06:02:22;;;;;;;2.55;0.60;;;;;;;-144.40;100.00;60209.53;4861429;29;20103;-91
2022/11/09 06:04:48;;;;;;;5.07;0.68;;;;;;;-144.40;100.00;60209.53;4863120;29;20036;-91
2022/11/09 06:07:14;;;;;;;4.32;0.68;;;;;;;-144.40;100.00;60209.53;4861703;29;20077;-92
2022/11/09 06:09:39;;;;;;;7.30;0.75;;;;;;;-144.40;100.00;60209.53;4862536;29;20033;-91
2022/11/09 06:12:05;;;;;;;7.55;0.40;;;;;;;-144.40;100.00;60209.53;4877150;29;20021;-92
2022/11/09 06:14:31;;;;;;;5.68;0.75;;;;;;;-144.40;100.00;60209.53;4863566;29;20056;-91
2022/11/09 06:16:56;;;;;;;3.50;0.70;;;;;;;-144.40;100.00;60209.53;4866472;29;20071;-90
2022/11/09 06:19:22;;;;;;;3.83;0.52;;;;;;;-144.40;100.00;60209.53;4868455;29;20030;-90
2022/11/09 06:21:47;;;;;;;7.20;0.60;;;;;;;-144.40;100.00;60209.53;4869180;29;20137;-94
2022/11/09 06:24:13;;;;;;;10.05;0.73;;;;;;;-144.40;100.00;60209.53;4862771;29;20036;-91
2022/11/09 06:26:38;;;;;;;2.90;0.50;;;;;;;-144.40;100.00;60209.53;4867656;29;20496;-90
2022/11/09 06:29:04;;;;;;;3.60;0.50;;;;;;;-144.40;100.00;60209.53;4862882;29;20049;-90
2022/11/09 06:31:30;;;;;;;3.97;0.40;;;;;;;-144.40;100.00;60209.53;4865032;29;20732;-91
2022/11/09 06:33:55;;;;;;;4.70;0.28;;;;;;;-144.40;100.00;60209.53;4864791;29;20044;-91
2022/11/09 06:36:21;;;;;;;2.45;0.47;;;;;;;-144.40;100.00;60209.53;4863715;29;20328;-91
2022/11/09 06:38:54;;;;;;;3.63;0.70;;;;;;;-144.40;100.00;60209.53;4862050;29;20037;-91
2022/11/09 06:41:19;;;;;;;5.82;0.40;;;;;;;-144.40;100.00;60209.53;4867382;29;20121;-90
2022/11/09 06:43:45;;;;;;;3.40;0.43;;;;;;;-144.40;100.00;60209.53;4865870;29;20433;-91
2022/11/09 06:46:11;;;;;;;2.65;1.05;;;;;;;-144.40;100.00;60209.53;4865337;29;20038;-91
2022/11/09 06:48:38;;;;;;;5.03;0.73;;;;;;;-144.40;100.00;60209.53;4868369;29;20029;-94
2022/11/09 06:51:04;;;;;;;4.63;0.70;;;;;;;-144.40;100.00;60209.53;4862695;29;20650;-91
2022/11/09 06:53:32;;;;;;;4.18;0.38;;;;;;;-144.40;100.00;60209.53;4861625;29;20029;-91
2022/11/09 06:55:58;;;;;;;4.72;0.60;;;;;;;-144.40;100.00;60209.53;4860236;29;20064;-89
2022/11/09 06:58:24;;;;;;;3.33;0.30;;;;;;;-144.40;100.00;60209.53;4860431;29;20037;-90
2022/11/09 07:00:50;;;;;;;2.65;0.57;;;;;;;-144.40;100.00;60209.53;4860056;29;20109;-90
2022/11/09 07:03:17;;;;;;;5.13;0.75;;;;;;;-144.40;100.00;60209.53;4856373;29;20375;-90
2022/11/09 07:05:43;;;;;;;2.33;0.40;;;;;;;-144.40;100.00;60209.53;4873310;29;20037;-90
2022/11/09 07:08:09;;;;;;;3.35;0.43;;;;;;;-144.40;100.00;60209.53;4860594;29;20092;-90
2022/11/09 07:10:35;;;;;;;4.15;0.43;;;;;;;-144.40;100.00;60209.53;4860304;29;20033;-90
2022/11/09 07:13:02;;;;;;;6.38;1.27;;;;;;;-144.40;100.00;60209.53;4861693;29;20034;-90
2022/11/09 07:15:27;;;;;;;5.03;0.55;;;;;;;-144.40;100.00;60209.53;4875298;29;20120;-90
2022/11/09 07:17:57;;;;;;;4.28;0.90;;;;;;;-144.40;100.00;60209.53;4875826;29;20085;-90
2022/11/09 07:20:23;;;;;;;4.88;0.60;;;;;;;-144.40;100.00;60209.53;4860492;29;20238;-91
2022/11/09 07:22:49;;;;;;;4.97;0.70;;;;;;;-144.40;100.00;60209.53;4860560;29;20166;-91
2022/11/09 07:25:15;;;;;;;3.05;0.52;;;;;;;-144.40;100.00;60209.53;4860228;29;20498;-90
2022/11/09 07:27:41;;;;;;;9.93;0.80;;;;;;;-144.40;100.00;60209.53;4859727;29;20120;-90
2022/11/09 07:30:07;;;;;;;3.47;0.60;;;;;;;-144.40;100.00;60209.53;4875608;29;20037;-90
2022/11/09 07:32:37;;;;;;;9.50;0.60;;;;;;;-144.40;100.00;60209.53;4861519;29;20033;-90
2022/11/09 07:35:04;;;;;;;6.00;0.80;;;;;;;-144.40;100.00;60209.53;4859761;29;20110;-91
2022/11/09 07:37:30;;;;;;;10.57;1.10;;;;;;;-144.40;100.00;60209.53;4858060;29;20056;-91
2022/11/09 07:39:56;;;;;;;7.28;0.90;;;;;;;-144.40;100.00;60209.53;4859277;29;20029;-90
2022/11/09 07:42:21;;;;;;;6.20;0.70;;;;;;;-144.40;100.00;60209.53;4860922;29;20044;-90
2022/11/09 07:44:47;;;;;;;13.35;1.45;;;;;;;-144.40;100.00;60209.53;4859942;29;20025;-90
2022/11/09 07:47:12;;;;;;;3.53;0.57;;;;;;;-144.40;100.00;60209.53;4857284;29;20029;-90
2022/11/09 07:49:38;;;;;;;4.60;0.47;;;;;;;-144.40;100.00;60209.53;4859418;29;20040;-90
2022/11/09 07:52:04;;;;;;;6.93;0.70;;;;;;;-144.40;100.00;60209.53;4860367;29;20116;-90
2022/11/09 07:54:30;;;;;;;6.88;1.00;;;;;;;-144.40;100.00;60209.53;4859688;29;20037;-90
2022/11/09 07:56:55;;;;;;;5.18;0.57;;;;;;;-144.40;100.00;60209.53;4860229;29;20388;-90
2022/11/09 07:59:21;;;;;;;7.40;0.95;;;;;;;-144.40;100.00;60209.53;4859914;29;20029;-90
2022/11/09 08:01:46;;;;;;;6.05;0.70;;;;;;;-144.40;100.00;60209.53;4873407;29;20034;-91
2022/11/09 08:04:13;;;;;;;6.93;0.60;;;;;;;-144.40;100.00;60209.53;4856519;29;20030;-91
2022/11/09 08:06:39;;;;;;;6.47;0.95;;;;;;;-144.40;100.00;60209.53;4846463;29;20025;-91
2022/11/09 08:09:04;;;;;;;11.23;1.13;;;;;;;-144.40;100.00;60209.53;4859130;29;20101;-92
2022/11/09 08:11:30;;;;;;;9.27;1.13;;;;;;;-144.40;100.00;60209.53;4858251;29;20029;-92
2022/11/09 08:13:56;;;;;;;13.07;1.02;;;;;;;-144.40;100.00;60209.53;4861529;29;20441;-92
2022/11/09 08:16:22;;;;;;;17.63;1.30;;;;;;;-144.40;100.00;60209.53;4859562;29;20081;-92
2022/11/09 08:18:49;;;;;;;5.88;0.82;;;;;;;-144.40;100.00;60209.53;4860188;29;20033;-91
2022/11/09 08:21:15;;;;;;;6.07;0.98;;;;;;;-144.40;100.00;60209.53;4858319;29;20025;-92
2022/11/09 08:23:40;;;;;;;9.85;1.60;;;;;;;-144.40;100.00;60209.53;4852369;29;20034;-92
2022/11/09 08:26:06;;;;;;;8.43;1.00;;;;;;;-144.40;100.00;60209.53;4857534;29;20013;-91
2022/11/09 08:28:32;;;;;;;6.32;0.88;;;;;;;-144.40;100.00;60209.53;4860081;29;20040;-91
2022/11/09 08:31:00;;;;;;;12.02;1.10;;;;;;;-144.40;100.00;60209.53;4852374;29;20026;-90
2022/11/09 08:33:28;;;;;;;6.25;1.08;;;;;;;-144.40;100.00;60209.53;4858474;29;20030;-91
2022/11/09 08:35:54;;;;;;;6.40;0.98;;;;;;;-144.40;100.00;60209.53;4858235;29;20065;-91
2022/11/09 08:38:19;;;;;;;5.65;0.88;;;;;;;-144.40;100.00;60209.53;4874337;29;20032;-91
2022/11/09 08:40:45;;;;;;;6.45;1.02;;;;;;;-144.40;100.00;60209.53;4858859;29;20037;-91
2022/11/09 08:43:11;;;;;;;4.97;0.95;;;;;;;-144.40;100.00;60209.53;4859824;29;20078;-91
2022/11/09 08:45:38;;;;;;;6.80;0.85;;;;;;;-144.40;100.00;60209.53;4875237;29;20029;-90
2022/11/09 08:48:05;;;;;;;8.43;1.52;;;;;;;-144.40;100.00;60209.53;4859881;29;20528;-91
2022/11/09 08:50:32;;;;;;;11.45;1.15;;;;;;;-144.40;100.00;60209.53;4856851;29;20037;-90
2022/11/09 08:52:59;;;;;;;5.43;1.00;;;;;;;-144.40;100.00;60209.53;4858449;29;20034;-90
2022/11/09 08:55:25;;;;;;;9.95;2.22;;;;;;;-144.40;100.00;60209.53;4847669;29;20026;-91
2022/11/09 08:57:58;;;;;;;6.70;1.20;;;;;;;-144.40;100.00;60209.53;4840412;29;20477;-90
2022/11/09 09:00:24;;;;;;;10.50;1.08;;;;;;;-144.40;100.00;60209.53;4870961;29;20033;-93
2022/11/09 09:02:50;;;;;;;8.07;0.93;;;;;;;-144.40;100.00;60209.53;4859706;29;20100;-91
2022/11/09 09:05:16;;;;;;;7.75;0.88;;;;;;;-144.40;100.00;60209.53;4846776;29;20481;-91
2022/11/09 09:07:42;;;;;;;6.75;1.27;;;;;;;-144.40;100.00;60209.53;4873604;29;20116;-92
2022/11/09 09:10:08;;;;;;;8.93;1.40;;;;;;;-144.40;100.00;60209.53;4856657;29;20121;-92
2022/11/09 09:12:34;;;;;;;9.98;1.15;;;;;;;-144.40;100.00;60209.53;4848191;29;20117;-91
2022/11/09 09:14:59;;;;;;;5.85;0.90;;;;;;;-144.40;100.00;60209.53;4854975;29;20556;-91
2022/11/09 09:17:25;;;;;;;11.25;0.95;;;;;;;-144.40;100.00;60209.53;4858437;29;20037;-92
2022/11/09 09:19:51;;;;;;;9.38;1.08;;;;;;;-144.40;100.00;60209.53;4857527;29;20021;-92
2022/11/09 09:22:17;;;;;;;8.38;1.10;;;;;;;-144.40;100.00;60209.53;4858163;29;20125;-92
2022/11/09 09:24:42;;;;;;;8.27;1.10;;;;;;;-144.40;100.00;60209.53;4857902;29;20025;-90
2022/11/09 09:27:08;;;;;;;5.38;0.98;;;;;;;-144.40;100.00;60209.53;4858509;29;20034;-91
2022/11/09 09:29:33;;;;;;;7.20;1.05;;;;;;;-144.40;100.00;60209.53;4861269;29;20070;-91
2022/11/09 09:31:59;;;;;;;5.40;0.75;;;;;;;-144.40;100.00;60209.53;4858458;29;20033;-91
2022/11/09 09:34:25;;;;;;;8.98;1.15;;;;;;;-144.40;100.00;60209.53;4859301;29;20030;-93
2022/11/09 09:36:54;;;;;;;15.57;2.03;;;;;;;-144.40;100.00;60209.53;4858175;29;20532;-91
2022/11/09 09:39:20;;;;;;;8.55;1.05;;;;;;;-144.40;100.00;60209.53;4859609;29;20428;-91
2022/11/09 09:41:59;;;;;;;14.77;1.42;;;;;;;-144.40;100.00;60209.53;4857489;29;20033;-91
2022/11/09 09:44:27;;;;;;;10.95;1.13;;;;;;;-144.40;100.00;60209.53;4870653;29;20395;-90
2022/11/09 09:47:21;;;;;;;5.32;0.47;;;;;;;-144.40;100.00;60209.53;4857589;29;20166;-90
2022/11/09 09:49:50;;;;;;;5.00;0.57;;;;;;;-144.40;100.00;60209.53;4854502;29;20042;-91
2022/11/09 09:52:22;;;;;;;13.57;1.40;;;;;;;-144.40;100.00;60209.53;4858433;29;20029;-92
2022/11/09 09:55:07;;;;;;;4.47;0.93;;;;;;;-144.40;100.00;60209.53;4858240;29;20026;-91
2022/11/09 09:57:35;;;;;;;7.60;1.02;;;;;;;-144.40;100.00;60209.53;4858465;29;20641;-91
2022/11/09 10:00:02;;;;;;;12.60;1.92;;;;;;;-144.40;100.00;60209.53;4858118;29;20128;-93
2022/11/09 10:02:30;;;;;;;8.38;1.05;;;;;;;-144.40;100.00;60209.53;4859519;29;20026;-91
2022/11/09 10:05:01;;;;;;;6.50;0.93;;;;;;;-144.40;100.00;60209.53;4859301;29;20037;-91
2022/11/09 10:07:57;;;;;;;9.00;0.77;;;;;;;-144.40;100.00;60209.53;4858346;29;20029;-91
2022/11/09 10:10:48;;;;;;;7.43;1.10;;;;;;;-144.40;100.00;60209.53;4859441;29;20348;-92
2022/11/09 10:13:21;;;;;;;10.30;1.13;;;;;;;-144.40;100.00;60209.53;4858652;29;20029;-91
2022/11/09 10:16:07;;;;;;;9.93;1.10;;;;;;;-144.40;100.00;60209.53;4859287;29;20101;-91
2022/11/09 10:18:58;;;;;;;5.88;1.08;;;;;;;-144.40;100.00;60209.53;4858145;29;20083;-91
2022/11/09 10:21:44;;;;;;;4.82;0.80;;;;;;;-144.40;100.00;60209.53;4859239;29;20170;-92
2022/11/09 10:24:25;;;;;;;3.75;1.05;;;;;;;-144.40;100.00;60209.53;4858419;29;20033;-91
2022/11/09 10:26:54;;;;;;;5.53;1.17;;;;;;;-144.40;100.00;60209.53;4858447;29;20025;-92
2022/11/09 10:29:34;;;;;;;4.82;0.93;;;;;;;-144.40;100.00;60209.53;4857501;29;20030;-92
2022/11/09 10:32:13;;;;;;;4.43;0.77;;;;;;;-144.40;100.00;60209.53;4858771;29;20032;-91
2022/11/09 10:35:00;;;;;;;4.82;0.90;;;;;;;-144.40;100.00;60209.53;4860735;29;20037;-92
2022/11/09 10:37:40;;;;;;;5.88;1.08;;;;;;;-144.40;100.00;60209.53;4861307;29;20031;-91
2022/11/09 10:40:27;;;;;;;6.55;0.95;;;;;;;-144.40;100.00;60209.53;4862649;29;20120;-91
2022/11/09 10:42:56;;;;;;;8.95;1.90;;;;;;;-144.40;100.00;60209.53;4861515;29;20132;-91
2022/11/09 10:45:27;;;;;;;4.88;0.90;;;;;;;-144.40;100.00;60209.53;4860187;29;20034;-90
2022/11/09 10:47:53;;;;;;;6.50;0.90;;;;;;;-144.40;100.00;60209.53;4861156;29;20033;-91
2022/11/09 10:50:25;;;;;;;6.25;1.08;;;;;;;-144.40;100.00;60209.53;4862155;29;20450;-92
2022/11/09 10:52:51;;;;;;;10.90;2.33;;;;;;;-144.40;100.00;60209.53;4862168;29;20029;-90
2022/11/09 10:55:27;;;;;;;10.93;1.20;;;;;;;-144.40;100.00;60209.53;4861583;29;20121;-92
2022/11/09 10:57:59;;;;;;;10.27;1.27;;;;;;;-144.40;100.00;60209.53;4861108;29;20488;-93
2022/11/09 11:00:25;;;;;;;9.07;1.55;;;;;;;-144.40;100.00;60209.53;4863653;29;20046;-92
2022/11/09 11:02:52;;;;;;;8.85;1.00;;;;;;;-144.40;100.00;60209.53;4862092;29;20105;-92
2022/11/09 11:05:17;;;;;;;9.10;1.45;;;;;;;-144.40;100.00;60209.53;4861107;29;20022;-92
2022/11/09 11:07:45;;;;;;;9.57;1.23;;;;;;;-144.40;100.00;60209.53;4861028;29;20399;-92
2022/11/09 11:10:19;;;;;;;8.30;1.70;;;;;;;-144.40;100.00;60209.53;4862024;29;20041;-92
2022/11/09 11:13:05;;;;;;;8.25;2.03;;;;;;;-144.40;100.00;60209.53;4859931;29;20045;-92